sensor_id;sensor_type;location;lat;lon;timestamp;P1;durP1;ratioP1;P2;durP2;ratioP2
1436;SDS011;712;51.026;13.792;2023-09-19T00:01:12;113.97;;;105.35;;
1436;SDS011;712;51.026;13.792;2023-09-19T00:03:37;46.77;;;43.17;;
1436;SDS011;712;51.026;13.792;2023-09-19T00:06:03;74.13;;;68.90;;
1436;SDS011;712;51.026;13.792;2023-09-19T00:08:32;91.18;;;84.50;;
1436;SDS011;712;51.026;13.792;2023-09-19T00:10:58;148.32;;;136.57;;
1436;SDS011;712;51.026;13.792;2023-09-19T00:13:30;37.55;;;34.65;;
1436;SDS011;712;51.026;13.792;2023-09-19T00:15:56;47.03;;;43.33;;
1436;SDS011;712;51.026;13.792;2023-09-19T00:18:23;47.15;;;43.60;;
1436;SDS011;712;51.026;13.792;2023-09-19T00:20:53;111.18;;;102.68;;
1436;SDS011;712;51.026;13.792;2023-09-19T00:23:21;56.03;;;51.78;;
1436;SDS011;712;51.026;13.792;2023-09-19T00:25:47;106.80;;;99.68;;
1436;SDS011;712;51.026;13.792;2023-09-19T00:28:12;88.95;;;82.55;;
1436;SDS011;712;51.026;13.792;2023-09-19T00:30:37;72.28;;;67.07;;
1436;SDS011;712;51.026;13.792;2023-09-19T00:33:03;48.92;;;45.40;;
1436;SDS011;712;51.026;13.792;2023-09-19T00:35:31;33.75;;;31.05;;
1436;SDS011;712;51.026;13.792;2023-09-19T00:37:56;68.93;;;64.10;;
1436;SDS011;712;51.026;13.792;2023-09-19T00:40:21;140.90;;;129.98;;
1436;SDS011;712;51.026;13.792;2023-09-19T00:42:46;75.27;;;68.63;;
1436;SDS011;712;51.026;13.792;2023-09-19T00:45:12;120.40;;;112.18;;
1436;SDS011;712;51.026;13.792;2023-09-19T00:47:41;131.18;;;121.57;;
1436;SDS011;712;51.026;13.792;2023-09-19T00:50:07;109.95;;;102.10;;
1436;SDS011;712;51.026;13.792;2023-09-19T00:52:34;143.80;;;132.80;;
1436;SDS011;712;51.026;13.792;2023-09-19T00:55:01;51.47;;;47.95;;
1436;SDS011;712;51.026;13.792;2023-09-19T00:57:27;86.25;;;80.45;;
1436;SDS011;712;51.026;13.792;2023-09-19T00:59:52;174.23;;;162.57;;
1436;SDS011;712;51.026;13.792;2023-09-19T01:02:19;57.42;;;53.05;;
1436;SDS011;712;51.026;13.792;2023-09-19T01:04:44;49.93;;;46.50;;
1436;SDS011;712;51.026;13.792;2023-09-19T01:07:09;102.40;;;95.10;;
1436;SDS011;712;51.026;13.792;2023-09-19T01:09:35;42.78;;;39.72;;
1436;SDS011;712;51.026;13.792;2023-09-19T01:12:01;30.10;;;27.65;;
1436;SDS011;712;51.026;13.792;2023-09-19T01:17:03;76.68;;;70.93;;
1436;SDS011;712;51.026;13.792;2023-09-19T01:19:44;46.97;;;43.28;;
1436;SDS011;712;51.026;13.792;2023-09-19T01:30:09;92.45;;;85.78;;
1436;SDS011;712;51.026;13.792;2023-09-19T01:32:34;51.15;;;47.58;;
1436;SDS011;712;51.026;13.792;2023-09-19T01:34:59;51.97;;;48.37;;
1436;SDS011;712;51.026;13.792;2023-09-19T01:37:29;136.05;;;126.47;;
1436;SDS011;712;51.026;13.792;2023-09-19T01:39:55;59.78;;;55.15;;
1436;SDS011;712;51.026;13.792;2023-09-19T01:42:24;70.45;;;65.53;;
1436;SDS011;712;51.026;13.792;2023-09-19T01:44:57;41.65;;;38.90;;
1436;SDS011;712;51.026;13.792;2023-09-19T01:47:34;42.65;;;39.13;;
1436;SDS011;712;51.026;13.792;2023-09-19T01:50:14;66.60;;;61.88;;
1436;SDS011;712;51.026;13.792;2023-09-19T01:52:46;198.07;;;183.27;;
1436;SDS011;712;51.026;13.792;2023-09-19T01:55:12;75.20;;;69.68;;
1436;SDS011;712;51.026;13.792;2023-09-19T01:57:45;214.55;;;197.60;;
1436;SDS011;712;51.026;13.792;2023-09-19T02:00:13;202.68;;;188.23;;
1436;SDS011;712;51.026;13.792;2023-09-19T02:02:40;32.58;;;30.13;;
1436;SDS011;712;51.026;13.792;2023-09-19T02:05:05;55.80;;;51.47;;
1436;SDS011;712;51.026;13.792;2023-09-19T02:07:31;43.55;;;40.38;;
1436;SDS011;712;51.026;13.792;2023-09-19T02:09:57;69.05;;;64.38;;
1436;SDS011;712;51.026;13.792;2023-09-19T02:12:22;62.97;;;58.47;;
1436;SDS011;712;51.026;13.792;2023-09-19T02:14:48;94.90;;;88.65;;
1436;SDS011;712;51.026;13.792;2023-09-19T02:17:13;58.28;;;54.05;;
1436;SDS011;712;51.026;13.792;2023-09-19T02:19:38;47.50;;;44.37;;
1436;SDS011;712;51.026;13.792;2023-09-19T02:22:04;48.97;;;45.47;;
1436;SDS011;712;51.026;13.792;2023-09-19T02:24:36;33.28;;;30.67;;
1436;SDS011;712;51.026;13.792;2023-09-19T02:27:01;64.30;;;59.70;;
1436;SDS011;712;51.026;13.792;2023-09-19T02:29:29;196.57;;;182.30;;
1436;SDS011;712;51.026;13.792;2023-09-19T02:31:54;56.30;;;52.15;;
1436;SDS011;712;51.026;13.792;2023-09-19T02:34:21;102.63;;;95.60;;
1436;SDS011;712;51.026;13.792;2023-09-19T02:36:46;67.90;;;63.10;;
1436;SDS011;712;51.026;13.792;2023-09-19T02:39:11;62.00;;;57.37;;
1436;SDS011;712;51.026;13.792;2023-09-19T02:41:36;116.07;;;107.78;;
1436;SDS011;712;51.026;13.792;2023-09-19T02:44:02;43.40;;;40.37;;
1436;SDS011;712;51.026;13.792;2023-09-19T02:46:27;35.08;;;32.58;;
1436;SDS011;712;51.026;13.792;2023-09-19T02:48:52;173.55;;;158.98;;
1436;SDS011;712;51.026;13.792;2023-09-19T02:51:19;54.47;;;50.80;;
1436;SDS011;712;51.026;13.792;2023-09-19T02:53:45;73.97;;;68.28;;
1436;SDS011;712;51.026;13.792;2023-09-19T02:56:12;97.25;;;90.28;;
1436;SDS011;712;51.026;13.792;2023-09-19T02:58:38;107.85;;;100.47;;
1436;SDS011;712;51.026;13.792;2023-09-19T03:01:08;194.60;;;180.93;;
1436;SDS011;712;51.026;13.792;2023-09-19T03:03:33;91.55;;;85.20;;
1436;SDS011;712;51.026;13.792;2023-09-19T03:05:58;103.50;;;96.50;;
1436;SDS011;712;51.026;13.792;2023-09-19T03:08:23;146.53;;;136.63;;
1436;SDS011;712;51.026;13.792;2023-09-19T03:10:50;81.38;;;75.72;;
1436;SDS011;712;51.026;13.792;2023-09-19T03:13:15;51.10;;;47.75;;
1436;SDS011;712;51.026;13.792;2023-09-19T03:15:41;50.93;;;47.27;;
1436;SDS011;712;51.026;13.792;2023-09-19T03:18:06;31.45;;;29.23;;
1436;SDS011;712;51.026;13.792;2023-09-19T03:20:31;61.35;;;57.38;;
1436;SDS011;712;51.026;13.792;2023-09-19T03:22:56;47.57;;;44.23;;
1436;SDS011;712;51.026;13.792;2023-09-19T03:25:22;93.35;;;86.78;;
1436;SDS011;712;51.026;13.792;2023-09-19T03:27:48;179.05;;;166.75;;
1436;SDS011;712;51.026;13.792;2023-09-19T03:30:13;86.87;;;80.97;;
1436;SDS011;712;51.026;13.792;2023-09-19T03:32:47;127.72;;;119.88;;
1436;SDS011;712;51.026;13.792;2023-09-19T03:35:14;45.03;;;41.95;;
1436;SDS011;712;51.026;13.792;2023-09-19T03:37:43;206.87;;;191.33;;
1436;SDS011;712;51.026;13.792;2023-09-19T03:40:09;57.60;;;53.35;;
1436;SDS011;712;51.026;13.792;2023-09-19T03:42:37;47.88;;;44.80;;
1436;SDS011;712;51.026;13.792;2023-09-19T03:45:02;94.63;;;88.57;;
1436;SDS011;712;51.026;13.792;2023-09-19T03:47:28;107.20;;;99.97;;
1436;SDS011;712;51.026;13.792;2023-09-19T03:49:53;40.43;;;37.77;;
1436;SDS011;712;51.026;13.792;2023-09-19T03:52:19;71.13;;;66.30;;
1436;SDS011;712;51.026;13.792;2023-09-19T03:54:44;70.72;;;65.85;;
1436;SDS011;712;51.026;13.792;2023-09-19T03:57:09;75.40;;;70.50;;
1436;SDS011;712;51.026;13.792;2023-09-19T03:59:34;29.02;;;27.05;;
1436;SDS011;712;51.026;13.792;2023-09-19T04:02:00;44.55;;;41.60;;
1436;SDS011;712;51.026;13.792;2023-09-19T04:06:54;46.90;;;43.85;;
1436;SDS011;712;51.026;13.792;2023-09-19T04:09:19;44.50;;;41.77;;
1436;SDS011;712;51.026;13.792;2023-09-19T04:11:44;32.53;;;30.45;;
1436;SDS011;712;51.026;13.792;2023-09-19T04:14:09;54.63;;;51.17;;
1436;SDS011;712;51.026;13.792;2023-09-19T04:16:35;95.83;;;89.40;;
1436;SDS011;712;51.026;13.792;2023-09-19T04:19:00;30.92;;;29.00;;
1436;SDS011;712;51.026;13.792;2023-09-19T04:21:25;123.90;;;115.57;;
1436;SDS011;712;51.026;13.792;2023-09-19T04:23:51;77.65;;;72.93;;
1436;SDS011;712;51.026;13.792;2023-09-19T04:26:16;54.37;;;51.00;;
1436;SDS011;712;51.026;13.792;2023-09-19T04:28:42;38.33;;;36.10;;
1436;SDS011;712;51.026;13.792;2023-09-19T04:31:08;50.08;;;47.05;;
1436;SDS011;712;51.026;13.792;2023-09-19T04:36:00;43.42;;;40.80;;
1436;SDS011;712;51.026;13.792;2023-09-19T04:38:25;64.07;;;60.05;;
1436;SDS011;712;51.026;13.792;2023-09-19T04:40:51;52.35;;;49.42;;
1436;SDS011;712;51.026;13.792;2023-09-19T04:43:21;110.00;;;102.18;;
1436;SDS011;712;51.026;13.792;2023-09-19T04:45:46;40.13;;;37.53;;
1436;SDS011;712;51.026;13.792;2023-09-19T04:48:11;41.70;;;39.00;;
1436;SDS011;712;51.026;13.792;2023-09-19T04:50:38;87.03;;;80.72;;
1436;SDS011;712;51.026;13.792;2023-09-19T04:53:03;69.60;;;64.93;;
1436;SDS011;712;51.026;13.792;2023-09-19T04:55:29;110.05;;;102.65;;
1436;SDS011;712;51.026;13.792;2023-09-19T04:57:55;54.67;;;51.20;;
1436;SDS011;712;51.026;13.792;2023-09-19T05:00:21;98.28;;;92.03;;
1436;SDS011;712;51.026;13.792;2023-09-19T05:02:49;50.10;;;47.00;;
1436;SDS011;712;51.026;13.792;2023-09-19T05:05:16;69.50;;;65.30;;
1436;SDS011;712;51.026;13.792;2023-09-19T05:07:42;80.50;;;75.28;;
1436;SDS011;712;51.026;13.792;2023-09-19T05:10:07;81.57;;;76.13;;
1436;SDS011;712;51.026;13.792;2023-09-19T05:12:35;71.25;;;66.95;;
1436;SDS011;712;51.026;13.792;2023-09-19T05:15:04;40.90;;;38.53;;
1436;SDS011;712;51.026;13.792;2023-09-19T05:17:29;90.80;;;85.03;;
1436;SDS011;712;51.026;13.792;2023-09-19T05:19:55;109.23;;;101.77;;
1436;SDS011;712;51.026;13.792;2023-09-19T05:22:20;49.03;;;45.90;;
1436;SDS011;712;51.026;13.792;2023-09-19T05:24:45;94.93;;;88.50;;
1436;SDS011;712;51.026;13.792;2023-09-19T05:27:16;93.28;;;87.35;;
1436;SDS011;712;51.026;13.792;2023-09-19T05:29:42;62.90;;;58.80;;
1436;SDS011;712;51.026;13.792;2023-09-19T05:32:07;48.92;;;45.83;;
1436;SDS011;712;51.026;13.792;2023-09-19T05:34:32;223.30;;;207.20;;
1436;SDS011;712;51.026;13.792;2023-09-19T05:36:58;43.93;;;41.23;;
1436;SDS011;712;51.026;13.792;2023-09-19T05:39:23;62.80;;;58.70;;
1436;SDS011;712;51.026;13.792;2023-09-19T05:41:48;54.53;;;50.92;;
1436;SDS011;712;51.026;13.792;2023-09-19T05:44:13;66.17;;;61.53;;
1436;SDS011;712;51.026;13.792;2023-09-19T05:46:39;62.97;;;58.92;;
1436;SDS011;712;51.026;13.792;2023-09-19T05:49:04;159.67;;;148.97;;
1436;SDS011;712;51.026;13.792;2023-09-19T05:51:30;82.60;;;76.80;;
1436;SDS011;712;51.026;13.792;2023-09-19T05:53:55;130.95;;;122.13;;
1436;SDS011;712;51.026;13.792;2023-09-19T05:56:20;64.07;;;60.10;;
1436;SDS011;712;51.026;13.792;2023-09-19T05:58:46;70.80;;;66.28;;
1436;SDS011;712;51.026;13.792;2023-09-19T06:01:11;165.68;;;150.75;;
1436;SDS011;712;51.026;13.792;2023-09-19T06:03:36;72.93;;;68.43;;
1436;SDS011;712;51.026;13.792;2023-09-19T06:06:02;69.33;;;64.90;;
1436;SDS011;712;51.026;13.792;2023-09-19T06:08:27;149.20;;;138.88;;
1436;SDS011;712;51.026;13.792;2023-09-19T06:10:53;75.40;;;70.35;;
1436;SDS011;712;51.026;13.792;2023-09-19T06:13:19;115.13;;;107.30;;
1436;SDS011;712;51.026;13.792;2023-09-19T06:15:44;180.57;;;167.55;;
1436;SDS011;712;51.026;13.792;2023-09-19T06:18:11;88.47;;;81.70;;
1436;SDS011;712;51.026;13.792;2023-09-19T06:20:40;66.05;;;61.83;;
1436;SDS011;712;51.026;13.792;2023-09-19T06:23:09;141.70;;;131.93;;
1436;SDS011;712;51.026;13.792;2023-09-19T06:25:34;131.32;;;122.72;;
1436;SDS011;712;51.026;13.792;2023-09-19T06:28:00;119.17;;;108.30;;
1436;SDS011;712;51.026;13.792;2023-09-19T06:30:30;155.35;;;143.65;;
1436;SDS011;712;51.026;13.792;2023-09-19T06:32:58;64.15;;;60.15;;
1436;SDS011;712;51.026;13.792;2023-09-19T06:35:24;121.10;;;112.57;;
1436;SDS011;712;51.026;13.792;2023-09-19T06:37:51;197.98;;;182.05;;
1436;SDS011;712;51.026;13.792;2023-09-19T06:40:16;120.77;;;112.13;;
1436;SDS011;712;51.026;13.792;2023-09-19T06:42:42;168.85;;;156.73;;
1436;SDS011;712;51.026;13.792;2023-09-19T06:45:07;82.35;;;76.93;;
1436;SDS011;712;51.026;13.792;2023-09-19T06:47:33;153.00;;;141.05;;
1436;SDS011;712;51.026;13.792;2023-09-19T06:49:58;59.03;;;55.13;;
1436;SDS011;712;51.026;13.792;2023-09-19T06:52:23;87.15;;;81.60;;
1436;SDS011;712;51.026;13.792;2023-09-19T06:54:49;198.83;;;182.80;;
1436;SDS011;712;51.026;13.792;2023-09-19T06:57:15;98.93;;;91.55;;
1436;SDS011;712;51.026;13.792;2023-09-19T06:59:40;143.80;;;132.32;;
1436;SDS011;712;51.026;13.792;2023-09-19T07:02:06;205.25;;;192.15;;
1436;SDS011;712;51.026;13.792;2023-09-19T07:04:31;111.50;;;103.83;;
1436;SDS011;712;51.026;13.792;2023-09-19T07:06:57;116.55;;;105.00;;
1436;SDS011;712;51.026;13.792;2023-09-19T07:09:23;154.38;;;140.75;;
1436;SDS011;712;51.026;13.792;2023-09-19T07:11:48;162.60;;;150.68;;
1436;SDS011;712;51.026;13.792;2023-09-19T07:14:15;160.75;;;148.55;;
1436;SDS011;712;51.026;13.792;2023-09-19T07:16:41;158.80;;;144.57;;
1436;SDS011;712;51.026;13.792;2023-09-19T07:19:09;158.30;;;146.15;;
1436;SDS011;712;51.026;13.792;2023-09-19T07:21:34;214.77;;;186.33;;
1436;SDS011;712;51.026;13.792;2023-09-19T07:24:00;185.43;;;170.57;;
1436;SDS011;712;51.026;13.792;2023-09-19T07:26:28;174.63;;;161.73;;
1436;SDS011;712;51.026;13.792;2023-09-19T07:28:54;127.20;;;118.90;;
1436;SDS011;712;51.026;13.792;2023-09-19T07:31:19;144.95;;;134.02;;
1436;SDS011;712;51.026;13.792;2023-09-19T07:33:44;234.90;;;218.57;;
1436;SDS011;712;51.026;13.792;2023-09-19T07:36:10;204.00;;;185.37;;
1436;SDS011;712;51.026;13.792;2023-09-19T07:38:35;228.60;;;211.40;;
1436;SDS011;712;51.026;13.792;2023-09-19T07:41:01;225.00;;;207.97;;
1436;SDS011;712;51.026;13.792;2023-09-19T07:43:27;227.82;;;205.90;;
1436;SDS011;712;51.026;13.792;2023-09-19T07:45:52;174.77;;;161.57;;
1436;SDS011;712;51.026;13.792;2023-09-19T07:48:18;218.82;;;202.98;;
1436;SDS011;712;51.026;13.792;2023-09-19T07:50:43;176.20;;;160.57;;
1436;SDS011;712;51.026;13.792;2023-09-19T07:53:09;180.85;;;167.05;;
1436;SDS011;712;51.026;13.792;2023-09-19T07:55:34;260.30;;;238.70;;
1436;SDS011;712;51.026;13.792;2023-09-19T07:57:59;270.83;;;245.63;;
1436;SDS011;712;51.026;13.792;2023-09-19T08:00:24;249.45;;;229.73;;
1436;SDS011;712;51.026;13.792;2023-09-19T08:02:50;201.60;;;185.57;;
1436;SDS011;712;51.026;13.792;2023-09-19T08:05:17;329.92;;;304.63;;
1436;SDS011;712;51.026;13.792;2023-09-19T08:07:43;254.10;;;234.23;;
1436;SDS011;712;51.026;13.792;2023-09-19T08:10:10;451.80;;;328.27;;
1436;SDS011;712;51.026;13.792;2023-09-19T08:12:40;288.35;;;266.25;;
1436;SDS011;712;51.026;13.792;2023-09-19T08:15:14;348.50;;;304.45;;
1436;SDS011;712;51.026;13.792;2023-09-19T08:17:39;296.92;;;272.48;;
1436;SDS011;712;51.026;13.792;2023-09-19T08:20:05;178.67;;;166.00;;
1436;SDS011;712;51.026;13.792;2023-09-19T08:22:30;202.18;;;187.48;;
1436;SDS011;712;51.026;13.792;2023-09-19T08:24:57;138.95;;;129.88;;
1436;SDS011;712;51.026;13.792;2023-09-19T08:27:23;154.88;;;142.25;;
1436;SDS011;712;51.026;13.792;2023-09-19T08:29:51;151.88;;;142.00;;
1436;SDS011;712;51.026;13.792;2023-09-19T08:32:17;189.82;;;175.50;;
1436;SDS011;712;51.026;13.792;2023-09-19T08:34:44;294.27;;;265.15;;
1436;SDS011;712;51.026;13.792;2023-09-19T08:37:10;251.30;;;229.67;;
1436;SDS011;712;51.026;13.792;2023-09-19T08:39:35;243.32;;;225.52;;
1436;SDS011;712;51.026;13.792;2023-09-19T08:42:01;287.52;;;258.17;;
1436;SDS011;712;51.026;13.792;2023-09-19T08:44:28;161.02;;;149.00;;
1436;SDS011;712;51.026;13.792;2023-09-19T08:47:30;220.80;;;205.20;;
1436;SDS011;712;51.026;13.792;2023-09-19T08:52:37;210.40;;;190.18;;
1436;SDS011;712;51.026;13.792;2023-09-19T08:55:06;280.45;;;251.05;;
1436;SDS011;712;51.026;13.792;2023-09-19T08:57:33;205.50;;;189.80;;
1436;SDS011;712;51.026;13.792;2023-09-19T09:00:01;285.55;;;263.60;;
1436;SDS011;712;51.026;13.792;2023-09-19T09:02:26;245.98;;;225.93;;
1436;SDS011;712;51.026;13.792;2023-09-19T09:04:52;273.40;;;247.75;;
1436;SDS011;712;51.026;13.792;2023-09-19T09:07:19;264.45;;;244.30;;
1436;SDS011;712;51.026;13.792;2023-09-19T09:09:44;273.10;;;249.13;;
1436;SDS011;712;51.026;13.792;2023-09-19T09:12:11;222.32;;;204.13;;
1436;SDS011;712;51.026;13.792;2023-09-19T09:14:38;207.93;;;188.48;;
1436;SDS011;712;51.026;13.792;2023-09-19T09:17:03;312.63;;;278.23;;
1436;SDS011;712;51.026;13.792;2023-09-19T09:19:28;218.57;;;203.00;;
1436;SDS011;712;51.026;13.792;2023-09-19T09:22:05;283.63;;;257.15;;
1436;SDS011;712;51.026;13.792;2023-09-19T09:24:30;309.88;;;284.23;;
1436;SDS011;712;51.026;13.792;2023-09-19T09:26:58;255.85;;;234.82;;
1436;SDS011;712;51.026;13.792;2023-09-19T09:29:39;360.07;;;329.40;;
1436;SDS011;712;51.026;13.792;2023-09-19T09:32:24;336.33;;;311.60;;
1436;SDS011;712;51.026;13.792;2023-09-19T09:34:51;175.60;;;162.73;;
1436;SDS011;712;51.026;13.792;2023-09-19T09:37:17;291.88;;;268.13;;
1436;SDS011;712;51.026;13.792;2023-09-19T09:39:49;359.05;;;330.23;;
1436;SDS011;712;51.026;13.792;2023-09-19T09:42:32;338.52;;;313.77;;
1436;SDS011;712;51.026;13.792;2023-09-19T09:47:41;285.42;;;262.13;;
1436;SDS011;712;51.026;13.792;2023-09-19T09:50:06;264.77;;;245.18;;
1436;SDS011;712;51.026;13.792;2023-09-19T09:52:45;231.43;;;213.57;;
1436;SDS011;712;51.026;13.792;2023-09-19T09:55:11;220.40;;;205.30;;
1436;SDS011;712;51.026;13.792;2023-09-19T09:57:36;247.17;;;224.17;;
1436;SDS011;712;51.026;13.792;2023-09-19T10:00:02;209.65;;;194.93;;
1436;SDS011;712;51.026;13.792;2023-09-19T10:02:36;315.92;;;290.27;;
1436;SDS011;712;51.026;13.792;2023-09-19T10:05:15;319.83;;;295.23;;
1436;SDS011;712;51.026;13.792;2023-09-19T10:07:51;227.82;;;210.32;;
1436;SDS011;712;51.026;13.792;2023-09-19T10:10:36;273.75;;;252.77;;
1436;SDS011;712;51.026;13.792;2023-09-19T10:13:11;350.83;;;322.25;;
1436;SDS011;712;51.026;13.792;2023-09-19T10:15:44;298.10;;;266.70;;
1436;SDS011;712;51.026;13.792;2023-09-19T10:18:14;268.17;;;248.65;;
1436;SDS011;712;51.026;13.792;2023-09-19T10:20:43;256.13;;;238.00;;
1436;SDS011;712;51.026;13.792;2023-09-19T10:23:10;239.18;;;221.40;;
1436;SDS011;712;51.026;13.792;2023-09-19T10:25:38;212.02;;;196.95;;
1436;SDS011;712;51.026;13.792;2023-09-19T10:28:05;327.02;;;296.55;;
1436;SDS011;712;51.026;13.792;2023-09-19T10:30:35;533.60;;;333.92;;
1436;SDS011;712;51.026;13.792;2023-09-19T10:35:27;181.57;;;168.82;;
1436;SDS011;712;51.026;13.792;2023-09-19T10:37:54;242.45;;;224.48;;
1436;SDS011;712;51.026;13.792;2023-09-19T10:40:19;413.65;;;342.05;;
1436;SDS011;712;51.026;13.792;2023-09-19T10:42:46;343.38;;;311.75;;
1436;SDS011;712;51.026;13.792;2023-09-19T10:45:13;286.27;;;259.92;;
1436;SDS011;712;51.026;13.792;2023-09-19T10:47:40;291.48;;;264.70;;
1436;SDS011;712;51.026;13.792;2023-09-19T10:50:06;398.73;;;365.53;;
1436;SDS011;712;51.026;13.792;2023-09-19T10:52:39;322.70;;;296.98;;
1436;SDS011;712;51.026;13.792;2023-09-19T10:55:05;292.73;;;271.08;;
1436;SDS011;712;51.026;13.792;2023-09-19T10:57:31;438.65;;;397.85;;
1436;SDS011;712;51.026;13.792;2023-09-19T11:00:06;281.10;;;262.23;;
1436;SDS011;712;51.026;13.792;2023-09-19T11:05:33;344.45;;;315.50;;
1436;SDS011;712;51.026;13.792;2023-09-19T11:07:59;355.42;;;325.50;;
1436;SDS011;712;51.026;13.792;2023-09-19T11:10:44;377.80;;;343.23;;
1436;SDS011;712;51.026;13.792;2023-09-19T11:13:29;457.88;;;385.33;;
1436;SDS011;712;51.026;13.792;2023-09-19T11:26:41;288.23;;;266.17;;
1436;SDS011;712;51.026;13.792;2023-09-19T11:29:24;245.13;;;224.20;;
1436;SDS011;712;51.026;13.792;2023-09-19T11:31:50;360.55;;;324.80;;
1436;SDS011;712;51.026;13.792;2023-09-19T11:37:00;569.25;;;495.23;;
1436;SDS011;712;51.026;13.792;2023-09-19T11:41:52;380.00;;;346.67;;
1436;SDS011;712;51.026;13.792;2023-09-19T11:46:55;415.83;;;380.38;;
1436;SDS011;712;51.026;13.792;2023-09-19T11:51:48;259.13;;;240.32;;
1436;SDS011;712;51.026;13.792;2023-09-19T11:54:16;366.83;;;334.23;;
1436;SDS011;712;51.026;13.792;2023-09-19T11:56:47;323.55;;;296.30;;
1436;SDS011;712;51.026;13.792;2023-09-19T11:59:19;382.67;;;341.00;;
1436;SDS011;712;51.026;13.792;2023-09-19T12:01:50;534.00;;;376.08;;
1436;SDS011;712;51.026;13.792;2023-09-19T12:04:15;459.50;;;418.77;;
1436;SDS011;712;51.026;13.792;2023-09-19T12:06:42;405.80;;;373.92;;
1436;SDS011;712;51.026;13.792;2023-09-19T12:09:12;443.85;;;405.85;;
1436;SDS011;712;51.026;13.792;2023-09-19T12:14:07;402.85;;;368.65;;
1436;SDS011;712;51.026;13.792;2023-09-19T12:16:33;386.45;;;356.02;;
1436;SDS011;712;51.026;13.792;2023-09-19T12:18:58;490.35;;;452.52;;
1436;SDS011;712;51.026;13.792;2023-09-19T12:21:42;477.52;;;431.10;;
1436;SDS011;712;51.026;13.792;2023-09-19T12:26:44;355.27;;;327.63;;
1436;SDS011;712;51.026;13.792;2023-09-19T12:29:14;454.48;;;417.00;;
1436;SDS011;712;51.026;13.792;2023-09-19T12:31:55;341.88;;;307.75;;
1436;SDS011;712;51.026;13.792;2023-09-19T12:34:28;374.73;;;340.17;;
1436;SDS011;712;51.026;13.792;2023-09-19T12:37:15;446.75;;;410.45;;
1436;SDS011;712;51.026;13.792;2023-09-19T12:39:45;349.58;;;320.73;;
1436;SDS011;712;51.026;13.792;2023-09-19T12:42:14;427.88;;;389.85;;
1436;SDS011;712;51.026;13.792;2023-09-19T12:44:46;345.63;;;315.98;;
1436;SDS011;712;51.026;13.792;2023-09-19T12:47:14;388.75;;;355.30;;
1436;SDS011;712;51.026;13.792;2023-09-19T12:52:25;424.48;;;387.30;;
1436;SDS011;712;51.026;13.792;2023-09-19T12:54:51;315.63;;;287.25;;
1436;SDS011;712;51.026;13.792;2023-09-19T12:57:25;365.23;;;331.90;;
1436;SDS011;712;51.026;13.792;2023-09-19T12:59:52;499.63;;;456.45;;
1436;SDS011;712;51.026;13.792;2023-09-19T13:04:51;406.85;;;373.90;;
1436;SDS011;712;51.026;13.792;2023-09-19T13:07:39;338.15;;;308.23;;
1436;SDS011;712;51.026;13.792;2023-09-19T13:10:06;440.60;;;401.02;;
1436;SDS011;712;51.026;13.792;2023-09-19T13:12:37;553.80;;;511.45;;
1436;SDS011;712;51.026;13.792;2023-09-19T13:15:15;478.45;;;439.35;;
1436;SDS011;712;51.026;13.792;2023-09-19T13:17:48;396.13;;;360.23;;
1436;SDS011;712;51.026;13.792;2023-09-19T13:20:53;344.70;;;314.48;;
1436;SDS011;712;51.026;13.792;2023-09-19T13:23:35;256.17;;;233.88;;
1436;SDS011;712;51.026;13.792;2023-09-19T13:25:59;375.77;;;347.63;;
1436;SDS011;712;51.026;13.792;2023-09-19T13:28:25;409.63;;;376.17;;
1436;SDS011;712;51.026;13.792;2023-09-19T13:30:50;360.67;;;331.27;;
1436;SDS011;712;51.026;13.792;2023-09-19T13:33:15;522.60;;;479.77;;
1436;SDS011;712;51.026;13.792;2023-09-19T13:35:45;500.00;;;459.58;;
1436;SDS011;712;51.026;13.792;2023-09-19T13:38:11;392.05;;;360.35;;
1436;SDS011;712;51.026;13.792;2023-09-19T13:40:40;400.80;;;368.55;;
1436;SDS011;712;51.026;13.792;2023-09-19T13:43:08;471.40;;;437.55;;
1436;SDS011;712;51.026;13.792;2023-09-19T13:45:34;476.67;;;433.40;;
1436;SDS011;712;51.026;13.792;2023-09-19T13:47:59;356.27;;;318.93;;
1436;SDS011;712;51.026;13.792;2023-09-19T13:50:24;464.70;;;423.90;;
1436;SDS011;712;51.026;13.792;2023-09-19T13:52:50;541.47;;;438.20;;
1436;SDS011;712;51.026;13.792;2023-09-19T13:55:18;400.38;;;366.33;;
1436;SDS011;712;51.026;13.792;2023-09-19T13:57:47;343.75;;;315.00;;
1436;SDS011;712;51.026;13.792;2023-09-19T14:00:17;518.20;;;470.80;;
1436;SDS011;712;51.026;13.792;2023-09-19T14:02:42;445.13;;;408.23;;
1436;SDS011;712;51.026;13.792;2023-09-19T14:05:10;523.97;;;483.08;;
1436;SDS011;712;51.026;13.792;2023-09-19T14:07:37;450.27;;;413.70;;
1436;SDS011;712;51.026;13.792;2023-09-19T14:10:02;458.00;;;417.73;;
1436;SDS011;712;51.026;13.792;2023-09-19T14:12:29;440.67;;;404.30;;
1436;SDS011;712;51.026;13.792;2023-09-19T14:14:54;433.52;;;392.38;;
1436;SDS011;712;51.026;13.792;2023-09-19T14:17:21;510.33;;;456.85;;
1436;SDS011;712;51.026;13.792;2023-09-19T14:19:46;566.63;;;520.90;;
1436;SDS011;712;51.026;13.792;2023-09-19T14:22:11;421.55;;;383.92;;
1436;SDS011;712;51.026;13.792;2023-09-19T14:24:36;495.33;;;452.27;;
1436;SDS011;712;51.026;13.792;2023-09-19T14:27:02;560.75;;;510.23;;
1436;SDS011;712;51.026;13.792;2023-09-19T14:29:29;423.92;;;381.95;;
1436;SDS011;712;51.026;13.792;2023-09-19T14:31:54;455.30;;;413.33;;
1436;SDS011;712;51.026;13.792;2023-09-19T14:34:20;451.60;;;412.83;;
1436;SDS011;712;51.026;13.792;2023-09-19T14:36:45;407.00;;;371.40;;
1436;SDS011;712;51.026;13.792;2023-09-19T14:39:10;414.50;;;374.20;;
1436;SDS011;712;51.026;13.792;2023-09-19T14:41:35;558.20;;;510.27;;
1436;SDS011;712;51.026;13.792;2023-09-19T14:44:02;489.23;;;426.97;;
1436;SDS011;712;51.026;13.792;2023-09-19T14:46:27;568.35;;;461.73;;
1436;SDS011;712;51.026;13.792;2023-09-19T14:48:52;560.07;;;512.73;;
1436;SDS011;712;51.026;13.792;2023-09-19T14:51:17;505.57;;;463.27;;
1436;SDS011;712;51.026;13.792;2023-09-19T14:53:44;475.92;;;429.27;;
1436;SDS011;712;51.026;13.792;2023-09-19T14:56:09;395.53;;;360.40;;
1436;SDS011;712;51.026;13.792;2023-09-19T14:58:35;593.03;;;538.08;;
1436;SDS011;712;51.026;13.792;2023-09-19T15:01:04;519.97;;;472.13;;
1436;SDS011;712;51.026;13.792;2023-09-19T15:03:30;550.67;;;504.75;;
1436;SDS011;712;51.026;13.792;2023-09-19T15:06:04;401.80;;;364.13;;
1436;SDS011;712;51.026;13.792;2023-09-19T15:08:30;480.30;;;439.50;;
1436;SDS011;712;51.026;13.792;2023-09-19T15:10:56;439.23;;;403.88;;
1436;SDS011;712;51.026;13.792;2023-09-19T15:13:23;438.48;;;404.00;;
1436;SDS011;712;51.026;13.792;2023-09-19T15:15:48;450.00;;;403.15;;
1436;SDS011;712;51.026;13.792;2023-09-19T15:18:14;457.58;;;418.77;;
1436;SDS011;712;51.026;13.792;2023-09-19T15:20:45;479.07;;;442.00;;
1436;SDS011;712;51.026;13.792;2023-09-19T15:23:10;509.80;;;465.20;;
1436;SDS011;712;51.026;13.792;2023-09-19T15:25:38;360.35;;;328.58;;
1436;SDS011;712;51.026;13.792;2023-09-19T15:28:05;539.58;;;488.95;;
1436;SDS011;712;51.026;13.792;2023-09-19T15:30:39;376.25;;;341.08;;